createdAt,value
2018-05-16T00:00:09.018Z,5.82
2018-05-16T00:02:38.574Z,6.93
2018-05-16T00:05:07.668Z,6.65
2018-05-16T00:07:36.722Z,6.18
2018-05-16T00:10:04.992Z,6.25
2018-05-16T00:12:33.288Z,6.80
2018-05-16T00:15:01.524Z,5.93
2018-05-16T00:17:29.817Z,6.60
2018-05-16T00:19:58.076Z,6.47
2018-05-16T00:22:26.377Z,6.57
2018-05-16T00:24:54.676Z,6.18
2018-05-16T00:27:22.910Z,6.40
2018-05-16T00:29:51.218Z,6.78
2018-05-16T00:32:19.535Z,7.12
2018-05-16T00:34:48.597Z,7.80
2018-05-16T00:37:16.833Z,6.97
2018-05-16T00:39:45.137Z,7.78
2018-05-16T00:42:13.454Z,6.87
2018-05-16T00:44:41.765Z,7.15
2018-05-16T00:47:11.214Z,6.87
2018-05-16T00:49:40.357Z,6.95
2018-05-16T00:52:08.643Z,7.20
2018-05-16T00:54:36.955Z,6.78
2018-05-16T00:57:05.316Z,6.85
2018-05-16T00:59:33.619Z,6.25
2018-05-16T01:02:02.961Z,6.87
2018-05-16T01:04:31.253Z,7.15
2018-05-16T01:06:59.521Z,7.22
2018-05-16T01:09:28.938Z,7.05
2018-05-16T01:11:57.188Z,6.75
2018-05-16T01:14:25.490Z,7.17
2018-05-16T01:16:53.751Z,7.53
2018-05-16T01:19:22.779Z,7.85
2018-05-16T01:21:51.073Z,7.40
2018-05-16T01:24:20.109Z,7.45
2018-05-16T01:26:49.124Z,6.87
2018-05-16T01:29:17.409Z,7.47
2018-05-16T01:31:45.650Z,7.47
2018-05-16T01:34:13.964Z,7.37
2018-05-16T01:36:43.088Z,7.57
2018-05-16T01:39:11.377Z,7.87
2018-05-16T01:41:40.226Z,8.55
2018-05-16T01:44:08.528Z,7.40
2018-05-16T01:46:37.569Z,8.45
2018-05-16T01:49:17.707Z,7.60
2018-05-16T01:51:45.950Z,7.37
2018-05-16T01:54:15.019Z,7.18
2018-05-16T01:56:43.252Z,7.78
2018-05-16T01:59:15.257Z,7.47
2018-05-16T02:01:43.712Z,7.28
2018-05-16T02:04:12.011Z,8.02
2018-05-16T02:06:40.266Z,7.30
2018-05-16T02:09:08.541Z,7.32
2018-05-16T02:11:36.844Z,7.72
2018-05-16T02:14:05.961Z,7.15
2018-05-16T02:16:34.256Z,7.47
2018-05-16T02:19:03.726Z,8.07
2018-05-16T02:21:32.000Z,8.67
2018-05-16T02:24:00.273Z,7.90
2018-05-16T02:26:28.566Z,8.52
2018-05-16T02:28:56.833Z,8.50
2018-05-16T02:31:26.581Z,8.75
2018-05-16T02:33:54.845Z,8.80
2018-05-16T02:36:26.757Z,8.57
2018-05-16T02:38:55.127Z,7.43
2018-05-16T02:41:24.543Z,8.10
2018-05-16T02:43:52.921Z,7.85
2018-05-16T02:46:21.221Z,8.35
2018-05-16T02:48:49.489Z,9.00
2018-05-16T02:51:17.739Z,8.77
2018-05-16T02:53:46.923Z,8.93
2018-05-16T02:56:15.191Z,9.13
2018-05-16T02:58:43.462Z,8.37
2018-05-16T03:01:12.897Z,8.30
2018-05-16T03:03:41.994Z,8.23
2018-05-16T03:06:10.295Z,8.45
2018-05-16T03:08:38.576Z,7.82
2018-05-16T03:11:07.012Z,8.07
2018-05-16T03:13:35.953Z,7.95
2018-05-16T03:16:05.023Z,8.77
2018-05-16T03:18:34.220Z,8.07
2018-05-16T03:21:02.600Z,9.00
2018-05-16T03:23:30.870Z,8.70
2018-05-16T03:25:59.169Z,8.18
2018-05-16T03:28:28.237Z,8.73
2018-05-16T03:30:56.529Z,8.57
2018-05-16T03:33:24.801Z,8.90
2018-05-16T03:35:53.077Z,8.13
2018-05-16T03:38:21.348Z,8.50
2018-05-16T03:40:50.403Z,8.18
2018-05-16T03:43:18.666Z,8.52
2018-05-16T03:45:46.984Z,8.23
2018-05-16T03:48:15.265Z,8.05
2018-05-16T03:50:43.584Z,8.18
2018-05-16T03:53:13.688Z,8.20
2018-05-16T03:55:41.936Z,9.90
2018-05-16T03:58:22.879Z,8.25
2018-05-16T04:01:02.931Z,9.52
2018-05-16T04:03:43.164Z,10.45
2018-05-16T04:06:12.252Z,9.68
2018-05-16T04:08:41.308Z,9.07
2018-05-16T04:11:09.622Z,9.20
2018-05-16T04:13:38.690Z,10.50
2018-05-16T04:16:06.969Z,9.77
2018-05-16T04:18:35.337Z,10.15
2018-05-16T04:21:03.652Z,9.40
2018-05-16T04:23:32.712Z,10.48
2018-05-16T04:26:01.001Z,10.13
2018-05-16T04:28:29.341Z,9.90
2018-05-16T04:30:57.605Z,10.35
2018-05-16T04:33:26.796Z,11.18
2018-05-16T04:35:55.076Z,10.43
2018-05-16T04:38:24.647Z,10.60
2018-05-16T04:40:52.940Z,11.12
2018-05-16T04:43:21.960Z,10.75
2018-05-16T04:45:50.237Z,9.85
2018-05-16T04:48:18.483Z,10.93
2018-05-16T04:50:46.819Z,9.97
2018-05-16T04:53:15.219Z,9.93
2018-05-16T04:55:45.208Z,10.18
2018-05-16T04:58:13.508Z,9.55
2018-05-16T05:00:42.538Z,10.37
2018-05-16T05:03:10.856Z,10.13
2018-05-16T05:05:39.198Z,10.10
2018-05-16T05:08:07.477Z,10.80
2018-05-16T05:10:35.748Z,11.03
2018-05-16T05:13:04.065Z,10.85
2018-05-16T05:15:32.343Z,11.45
2018-05-16T05:18:00.657Z,12.10
2018-05-16T05:20:28.970Z,10.83
2018-05-16T05:22:57.277Z,10.10
2018-05-16T05:25:25.547Z,10.60
2018-05-16T05:27:53.899Z,10.45
2018-05-16T05:30:23.032Z,11.02
2018-05-16T05:32:51.263Z,10.95
2018-05-16T05:35:19.582Z,10.07
2018-05-16T05:37:47.873Z,9.90
2018-05-16T05:40:16.930Z,11.20
2018-05-16T05:42:45.946Z,10.70
2018-05-16T05:45:14.227Z,10.68
2018-05-16T05:47:42.502Z,11.30
2018-05-16T05:50:12.310Z,10.82
2018-05-16T05:52:41.711Z,10.70
2018-05-16T05:55:10.005Z,11.50
2018-05-16T05:57:38.280Z,11.27
2018-05-16T06:00:06.593Z,10.90
2018-05-16T06:02:35.590Z,10.90
2018-05-16T06:05:03.911Z,11.10
2018-05-16T06:07:32.173Z,11.32
2018-05-16T06:10:00.547Z,10.48
2018-05-16T06:12:30.654Z,11.88
2018-05-16T06:14:59.119Z,11.57
2018-05-16T06:17:27.361Z,10.85
2018-05-16T06:19:56.507Z,10.90
2018-05-16T06:22:24.729Z,11.48
2018-05-16T06:24:53.739Z,11.80
2018-05-16T06:27:22.248Z,10.68
2018-05-16T06:29:50.363Z,10.85
2018-05-16T06:32:18.695Z,10.95
2018-05-16T06:34:47.749Z,11.90
2018-05-16T06:37:16.053Z,12.40
2018-05-16T06:39:44.307Z,12.35
2018-05-16T06:42:13.378Z,13.45
2018-05-16T06:44:41.776Z,11.70
2018-05-16T06:47:10.038Z,12.57
2018-05-16T06:49:38.353Z,11.57
2018-05-16T06:52:06.645Z,12.07
2018-05-16T06:54:34.943Z,12.50
2018-05-16T06:57:03.243Z,12.13
2018-05-16T06:59:31.562Z,11.77
2018-05-16T07:01:59.809Z,12.13
2018-05-16T07:04:28.865Z,11.38
2018-05-16T07:06:57.269Z,12.80
2018-05-16T07:09:27.057Z,12.03
2018-05-16T07:11:55.323Z,11.27
2018-05-16T07:14:23.610Z,11.48
2018-05-16T07:16:51.921Z,11.73
2018-05-16T07:19:20.984Z,11.23
2018-05-16T07:21:50.282Z,11.63
2018-05-16T07:24:18.557Z,12.18
2018-05-16T07:26:46.800Z,11.57
2018-05-16T07:29:15.128Z,33.92
2018-05-16T07:31:43.401Z,10.68
2018-05-16T07:34:11.693Z,11.27
2018-05-16T07:36:40.768Z,10.35
2018-05-16T07:39:09.044Z,11.00
2018-05-16T07:41:37.339Z,10.65
2018-05-16T07:44:05.628Z,10.57
2018-05-16T07:46:33.945Z,9.77
2018-05-16T07:49:02.241Z,10.98
2018-05-16T07:51:30.499Z,10.02
2018-05-16T07:53:58.794Z,10.02
2018-05-16T07:56:27.083Z,33.70
2018-05-16T07:58:55.347Z,9.85
2018-05-16T08:01:23.649Z,8.63
2018-05-16T08:03:52.014Z,8.07
2018-05-16T08:06:20.377Z,8.38
2018-05-16T08:08:48.639Z,8.70
2018-05-16T08:11:16.919Z,9.32
2018-05-16T08:13:45.189Z,7.60
2018-05-16T08:16:14.359Z,7.60
2018-05-16T08:18:43.513Z,7.00
2018-05-16T08:21:11.775Z,7.25
2018-05-16T08:23:40.013Z,7.40
2018-05-16T08:26:11.100Z,7.78
2018-05-16T08:28:41.555Z,6.90
2018-05-16T08:31:10.577Z,7.50
2018-05-16T08:33:39.573Z,7.72
2018-05-16T08:36:08.631Z,7.72
2018-05-16T08:38:36.907Z,6.93
2018-05-16T08:41:05.184Z,7.55
2018-05-16T08:43:35.398Z,7.65
2018-05-16T08:46:03.688Z,8.27
2018-05-16T08:48:32.768Z,7.90
2018-05-16T08:51:01.419Z,8.10
2018-05-16T08:53:29.801Z,8.40
2018-05-16T08:55:57.970Z,8.52
2018-05-16T08:58:26.272Z,8.98
2018-05-16T09:00:55.318Z,8.52
2018-05-16T09:03:24.461Z,8.32
2018-05-16T09:05:52.741Z,8.27
2018-05-16T09:08:21.063Z,8.27
2018-05-16T09:10:50.068Z,9.48
2018-05-16T09:13:18.729Z,8.52
2018-05-16T09:15:47.816Z,9.10
2018-05-16T09:18:16.901Z,9.13
2018-05-16T09:20:45.155Z,8.90
2018-05-16T09:23:13.912Z,9.98
2018-05-16T09:25:42.192Z,9.75
2018-05-16T09:28:10.502Z,9.80
2018-05-16T09:30:38.781Z,10.00
2018-05-16T09:33:07.825Z,9.77
2018-05-16T09:35:36.720Z,9.25
2018-05-16T09:40:40.449Z,8.88
2018-05-16T09:43:08.978Z,8.40
2018-05-16T09:45:37.254Z,7.90
2018-05-16T09:48:05.502Z,7.87
2018-05-16T09:50:33.777Z,8.20
2018-05-16T09:53:02.841Z,7.78
2018-05-16T09:55:31.915Z,9.10
2018-05-16T09:58:00.941Z,8.45
2018-05-16T10:00:32.740Z,8.20
2018-05-16T10:03:01.008Z,7.03
2018-05-16T10:05:29.279Z,7.60
2018-05-16T10:07:57.572Z,9.95
2018-05-16T10:10:26.621Z,7.07
2018-05-16T10:12:55.170Z,7.57
2018-05-16T10:15:24.444Z,15.15
2018-05-16T10:17:52.677Z,6.05
2018-05-16T10:20:21.213Z,6.30
2018-05-16T10:22:49.481Z,5.57
2018-05-16T10:25:17.746Z,4.50
2018-05-16T10:27:45.986Z,5.20
2018-05-16T10:30:14.276Z,5.28
2018-05-16T10:32:42.583Z,9.65
2018-05-16T10:35:11.614Z,8.82
2018-05-16T10:37:39.942Z,4.10
2018-05-16T10:40:08.233Z,4.35
2018-05-16T10:42:37.275Z,4.30
2018-05-16T10:45:05.580Z,4.82
2018-05-16T10:47:34.677Z,3.97
2018-05-16T10:50:03.422Z,4.20
2018-05-16T10:52:32.487Z,3.95
2018-05-16T10:55:01.535Z,3.58
2018-05-16T10:57:29.851Z,4.05
2018-05-16T10:59:58.115Z,3.75
2018-05-16T11:02:26.400Z,5.22
2018-05-16T11:04:54.688Z,4.50
2018-05-16T11:07:23.721Z,4.28
2018-05-16T11:09:52.018Z,4.18
2018-05-16T11:12:20.328Z,4.05
2018-05-16T11:14:48.546Z,4.32
2018-05-16T11:17:16.849Z,3.97
2018-05-16T11:19:46.273Z,4.43
2018-05-16T11:22:14.569Z,4.53
2018-05-16T11:24:43.633Z,4.47
2018-05-16T11:27:12.715Z,4.70
2018-05-16T11:29:43.906Z,3.92
2018-05-16T11:32:12.127Z,4.62
2018-05-16T11:34:40.414Z,4.25
2018-05-16T11:37:08.684Z,4.40
2018-05-16T11:39:36.988Z,4.00
2018-05-16T11:42:05.257Z,4.25
2018-05-16T11:44:33.535Z,4.87
2018-05-16T11:47:01.779Z,4.67
2018-05-16T11:49:30.064Z,5.70
2018-05-16T11:51:59.252Z,5.28
2018-05-16T11:54:27.506Z,4.65
2018-05-16T11:56:55.834Z,4.00
2018-05-16T11:59:24.115Z,4.97
2018-05-16T12:01:53.805Z,5.03
2018-05-16T12:04:22.101Z,4.10
2018-05-16T12:06:51.617Z,4.40
2018-05-16T12:09:19.886Z,4.05
2018-05-16T12:11:48.250Z,3.83
2018-05-16T12:14:16.552Z,4.40
2018-05-16T12:16:46.502Z,3.75
2018-05-16T12:19:14.815Z,3.87
2018-05-16T12:21:43.184Z,4.40
2018-05-16T12:24:13.211Z,4.15
2018-05-16T12:26:41.519Z,4.20
2018-05-16T12:29:09.871Z,4.28
2018-05-16T12:31:38.059Z,4.12
2018-05-16T12:34:06.312Z,3.97
2018-05-16T12:36:34.613Z,4.43
2018-05-16T12:39:02.857Z,8.48
2018-05-16T12:44:06.696Z,5.00
2018-05-16T12:46:36.226Z,3.95
2018-05-16T12:49:05.279Z,4.60
2018-05-16T12:51:33.569Z,4.32
2018-05-16T12:54:01.868Z,4.75
2018-05-16T12:56:31.682Z,4.75
2018-05-16T12:59:00.765Z,4.20
2018-05-16T13:01:30.581Z,3.80
2018-05-16T13:03:59.630Z,3.42
2018-05-16T13:06:28.664Z,3.80
2018-05-16T13:08:56.937Z,3.70
2018-05-16T13:11:25.239Z,3.53
2018-05-16T13:13:54.293Z,4.15
2018-05-16T13:16:22.571Z,3.50
2018-05-16T13:18:51.671Z,3.90
2018-05-16T13:21:21.041Z,3.75
2018-05-16T13:23:49.237Z,3.80
2018-05-16T13:26:17.527Z,4.30
2018-05-16T13:28:50.031Z,3.53
2018-05-16T13:31:19.080Z,3.37
2018-05-16T13:33:47.348Z,3.40
2018-05-16T13:36:15.746Z,4.15
2018-05-16T13:38:44.712Z,3.25
2018-05-16T13:41:13.024Z,3.78
2018-05-16T13:43:41.262Z,4.20
2018-05-16T13:46:10.357Z,3.87
2018-05-16T13:48:38.593Z,4.00
2018-05-16T13:51:08.628Z,3.90
2018-05-16T13:53:37.691Z,3.70
2018-05-16T13:56:06.064Z,3.75
2018-05-16T13:58:34.299Z,4.05
2018-05-16T14:01:02.616Z,3.90
2018-05-16T14:03:30.973Z,4.20
2018-05-16T14:05:59.261Z,3.97
2018-05-16T14:08:27.571Z,4.12
2018-05-16T14:10:56.607Z,4.77
2018-05-16T14:13:26.589Z,4.25
2018-05-16T14:15:55.614Z,4.75
2018-05-16T14:18:23.862Z,4.40
2018-05-16T14:20:52.894Z,4.85
2018-05-16T14:23:21.203Z,5.05
2018-05-16T14:25:49.477Z,4.80
2018-05-16T14:28:17.714Z,4.80
2018-05-16T14:30:46.013Z,5.30
2018-05-16T14:33:14.338Z,4.95
2018-05-16T14:35:42.627Z,4.80
2018-05-16T14:38:10.924Z,5.60
2018-05-16T14:40:39.209Z,4.57
2018-05-16T14:43:07.497Z,4.73
2018-05-16T14:45:35.752Z,4.97
2018-05-16T14:48:04.027Z,4.53
2018-05-16T14:50:32.341Z,4.80
2018-05-16T14:53:02.091Z,5.25
2018-05-16T14:55:30.413Z,5.72
2018-05-16T14:57:58.698Z,5.50
2018-05-16T15:00:27.025Z,5.45
2018-05-16T15:02:55.292Z,5.40
2018-05-16T15:05:23.629Z,4.45
2018-05-16T15:07:51.919Z,4.90
2018-05-16T15:10:20.936Z,3.87
2018-05-16T15:12:50.045Z,4.45
2018-05-16T15:15:19.100Z,4.10
2018-05-16T15:17:48.158Z,4.15
2018-05-16T15:20:16.442Z,4.68
2018-05-16T15:22:45.120Z,4.93
2018-05-16T15:25:13.381Z,4.78
2018-05-16T15:27:42.645Z,4.32
2018-05-16T15:30:10.902Z,5.28
2018-05-16T15:32:39.988Z,4.20
2018-05-16T15:35:08.242Z,4.82
2018-05-16T15:37:36.545Z,4.97
2018-05-16T15:40:04.898Z,4.50
2018-05-16T15:42:33.140Z,4.43
2018-05-16T15:45:01.499Z,4.82
2018-05-16T15:47:30.509Z,4.82
2018-05-16T15:49:58.841Z,4.62
2018-05-16T15:52:27.106Z,4.57
2018-05-16T15:54:55.405Z,5.20
2018-05-16T15:57:24.693Z,5.10
2018-05-16T15:59:52.979Z,4.80
2018-05-16T16:02:21.247Z,4.78
2018-05-16T16:04:49.552Z,5.10
2018-05-16T16:07:19.866Z,5.00
2018-05-16T16:09:48.229Z,5.00
2018-05-16T16:12:16.529Z,4.75
2018-05-16T16:14:45.540Z,4.40
2018-05-16T16:17:13.836Z,4.90
2018-05-16T16:19:42.117Z,4.97
2018-05-16T16:22:10.349Z,5.00
2018-05-16T16:24:39.416Z,5.18
2018-05-16T16:27:07.690Z,4.87
2018-05-16T16:29:35.983Z,5.43
2018-05-16T16:32:04.364Z,5.70
2018-05-16T16:34:32.666Z,7.65
2018-05-16T16:37:01.004Z,6.40
2018-05-16T16:39:29.312Z,9.23
2018-05-16T16:41:58.364Z,8.05
2018-05-16T16:44:26.717Z,8.02
2018-05-16T16:46:55.033Z,8.30
2018-05-16T16:49:23.284Z,7.25
2018-05-16T16:51:51.565Z,7.45
2018-05-16T16:54:19.812Z,8.57
2018-05-16T16:56:48.148Z,7.03
2018-05-16T16:59:17.219Z,7.55
2018-05-16T17:01:45.487Z,8.48
2018-05-16T17:04:14.672Z,8.25
2018-05-16T17:06:43.483Z,7.95
2018-05-16T17:09:11.777Z,10.25
2018-05-16T17:11:40.098Z,6.78
2018-05-16T17:14:08.410Z,7.80
2018-05-16T17:16:37.426Z,8.32
2018-05-16T17:19:06.497Z,10.70
2018-05-16T17:21:34.776Z,9.15
2018-05-16T17:24:03.064Z,9.57
2018-05-16T17:26:31.371Z,7.28
2018-05-16T17:29:00.434Z,8.63
2018-05-16T17:31:28.717Z,9.93
2018-05-16T17:33:57.071Z,7.28
2018-05-16T17:36:25.369Z,8.90
2018-05-16T17:38:53.622Z,8.38
2018-05-16T17:41:22.865Z,8.00
2018-05-16T17:43:51.945Z,7.90
2018-05-16T17:46:20.302Z,8.23
2018-05-16T17:48:48.585Z,7.82
2018-05-16T17:51:16.913Z,7.57
2018-05-16T17:53:45.206Z,7.53
2018-05-16T17:56:14.258Z,7.70
2018-05-16T17:58:43.420Z,6.80
2018-05-16T18:01:11.706Z,7.20
2018-05-16T18:03:40.008Z,7.03
2018-05-16T18:06:09.083Z,7.40
2018-05-16T18:08:37.394Z,6.97
2018-05-16T18:11:06.442Z,7.03
2018-05-16T18:16:48.676Z,7.37
2018-05-16T18:19:17.236Z,6.93
2018-05-16T18:21:45.531Z,6.70
2018-05-16T18:24:13.809Z,7.55
2018-05-16T18:26:42.126Z,8.05
2018-05-16T18:29:10.474Z,6.30
2018-05-16T18:31:38.781Z,7.55
2018-05-16T18:34:07.829Z,6.50
2018-05-16T18:36:36.130Z,8.95
2018-05-16T18:39:05.174Z,7.03
2018-05-16T18:41:33.483Z,7.67
2018-05-16T18:44:01.780Z,6.43
2018-05-16T18:46:30.055Z,7.05
2018-05-16T18:48:58.369Z,6.50
2018-05-16T18:51:26.730Z,7.50
2018-05-16T18:53:55.088Z,5.87
2018-05-16T18:56:23.454Z,6.62
2018-05-16T18:58:51.727Z,5.72
2018-05-16T19:01:20.375Z,6.80
2018-05-16T19:03:48.809Z,5.72
2018-05-16T19:06:18.615Z,6.28
2018-05-16T19:08:46.988Z,6.35
2018-05-16T19:11:15.254Z,5.75
2018-05-16T19:13:43.607Z,6.00
2018-05-16T19:16:11.909Z,7.80
2018-05-16T19:18:40.592Z,8.00
2018-05-16T19:21:09.702Z,6.32
2018-05-16T19:23:37.965Z,6.47
2018-05-16T19:26:06.361Z,6.40
2018-05-16T19:28:36.321Z,5.85
2018-05-16T19:31:04.652Z,6.10
2018-05-16T19:33:32.985Z,5.60
2018-05-16T19:36:01.308Z,5.72
2018-05-16T19:38:30.370Z,6.57
2018-05-16T19:40:59.594Z,6.53
2018-05-16T19:43:27.879Z,6.97
2018-05-16T19:45:56.198Z,6.07
2018-05-16T19:48:24.464Z,5.97
2018-05-16T19:50:52.799Z,6.33
2018-05-16T19:53:21.088Z,5.95
2018-05-16T19:55:49.406Z,6.25
2018-05-16T19:58:17.681Z,6.50
2018-05-16T20:00:46.031Z,5.93
2018-05-16T20:03:16.702Z,5.47
2018-05-16T20:05:45.022Z,5.85
2018-05-16T20:08:13.355Z,6.32
2018-05-16T20:10:41.627Z,8.00
2018-05-16T20:13:09.961Z,6.20
2018-05-16T20:15:38.220Z,5.77
2018-05-16T20:18:06.557Z,6.10
2018-05-16T20:20:34.877Z,6.53
2018-05-16T20:23:03.207Z,6.67
2018-05-16T20:25:31.495Z,5.80
2018-05-16T20:27:59.826Z,5.83
2018-05-16T20:30:28.121Z,5.43
2018-05-16T20:32:56.444Z,6.20
2018-05-16T20:35:25.450Z,6.27
2018-05-16T20:37:54.634Z,5.20
2018-05-16T20:40:22.954Z,5.87
2018-05-16T20:42:52.023Z,6.00
2018-05-16T20:45:20.346Z,5.50
2018-05-16T20:47:48.885Z,5.87
2018-05-16T20:50:17.158Z,5.90
2018-05-16T20:52:45.474Z,6.70
2018-05-16T20:55:14.519Z,5.63
2018-05-16T20:57:42.776Z,6.07
2018-05-16T21:00:11.064Z,5.97
2018-05-16T21:02:39.356Z,5.70
2018-05-16T21:05:07.633Z,6.13
2018-05-16T21:07:35.944Z,5.33
2018-05-16T21:10:05.085Z,5.63
2018-05-16T21:12:34.003Z,5.67
2018-05-16T21:15:02.286Z,6.23
2018-05-16T21:17:30.556Z,6.10
2018-05-16T21:20:00.007Z,5.87
2018-05-16T21:22:28.363Z,6.07
2018-05-16T21:24:57.438Z,5.50
2018-05-16T21:27:25.777Z,6.30
2018-05-16T21:29:54.165Z,6.33
2018-05-16T21:32:22.455Z,6.10
2018-05-16T21:34:50.718Z,5.63
2018-05-16T21:37:19.833Z,5.93
2018-05-16T21:39:48.119Z,5.43
2018-05-16T21:42:17.184Z,5.27
2018-05-16T21:44:46.247Z,5.50
2018-05-16T21:47:14.487Z,5.50
2018-05-16T21:49:43.547Z,5.73
2018-05-16T21:52:11.847Z,5.33
2018-05-16T21:54:40.129Z,5.60
2018-05-16T21:57:09.166Z,5.30
2018-05-16T21:59:37.468Z,5.80
2018-05-16T22:02:05.939Z,5.67
2018-05-16T22:04:34.347Z,5.30
2018-05-16T22:07:02.748Z,5.23
2018-05-16T22:09:31.039Z,5.77
2018-05-16T22:12:00.093Z,5.35
2018-05-16T22:14:28.388Z,5.70
2018-05-16T22:16:57.443Z,5.93
2018-05-16T22:19:25.764Z,6.03
2018-05-16T22:21:54.037Z,5.70
2018-05-16T22:24:22.319Z,6.83
2018-05-16T22:26:50.655Z,4.97
2018-05-16T22:29:18.977Z,5.40
2018-05-16T22:31:53.828Z,5.17
2018-05-16T22:34:28.613Z,5.03
2018-05-16T22:37:03.337Z,4.70
2018-05-16T22:39:37.262Z,5.63
2018-05-16T22:42:11.237Z,5.20
2018-05-16T22:44:46.416Z,5.60
2018-05-16T22:47:14.675Z,5.87
2018-05-16T22:49:43.051Z,4.97
2018-05-16T22:52:11.333Z,5.53
2018-05-16T22:54:40.361Z,5.40
2018-05-16T22:57:08.662Z,5.97
2018-05-16T22:59:36.952Z,6.70
2018-05-16T23:02:05.213Z,5.03
2018-05-16T23:04:33.491Z,5.93
2018-05-16T23:07:01.747Z,4.73
2018-05-16T23:09:30.071Z,5.83
2018-05-16T23:11:58.369Z,5.40
2018-05-16T23:14:27.381Z,5.37
2018-05-16T23:16:55.656Z,6.37
2018-05-16T23:19:23.900Z,6.77
2018-05-16T23:21:52.211Z,6.00
2018-05-16T23:24:21.955Z,5.03
2018-05-16T23:26:50.250Z,5.00
2018-05-16T23:29:18.500Z,6.20
2018-05-16T23:31:46.788Z,5.70
2018-05-16T23:34:16.086Z,6.77
2018-05-16T23:36:44.346Z,5.03
2018-05-16T23:39:12.661Z,6.60
2018-05-16T23:41:40.936Z,5.97
2018-05-16T23:44:09.248Z,6.57
2018-05-16T23:46:38.268Z,7.00
2018-05-16T23:49:06.583Z,6.20
2018-05-16T23:51:34.967Z,6.23
2018-05-16T23:54:03.279Z,5.73
2018-05-16T23:56:31.574Z,5.90
2018-05-16T23:59:00.676Z,6.77
